Time;durP1;ratioP1;P1;durP2;ratioP2;P2;SDS_P1;SDS_P2;PMS_P1;PMS_P2;Temp;Humidity;BMP_temperature;BMP_pressure;BME280_temperature;BME280_humidity;BME280_pressure;Samples;Min_cycle;Max_cycle;Signal;HPM_P1;HPM_P2
2023/07/19 04:31:24;;;;;;;3.60;1.45;;;17.80;71.80;;;;;;5431897;23;20051;-77
2023/07/19 04:33:50;;;;;;;7.63;2.20;;;17.90;71.10;;;;;;4968548;28;20023;-76
2023/07/19 04:36:16;;;;;;;6.20;2.00;;;17.90;71.30;;;;;;4977620;28;20030;-76
2023/07/19 04:38:42;;;;;;;5.72;1.77;;;18.00;71.00;;;;;;4977246;28;20031;-77
2023/07/19 04:41:09;;;;;;;3.63;1.83;;;18.00;70.90;;;;;;4972635;28;20039;-77
2023/07/19 04:43:35;;;;;;;4.45;2.05;;;18.00;70.60;;;;;;4958865;29;20474;-76
2023/07/19 04:46:00;;;;;;;5.03;2.30;;;18.00;71.10;;;;;;4965915;28;20023;-77
2023/07/19 04:48:26;;;;;;;6.38;1.95;;;18.00;71.50;;;;;;4966021;28;20028;-77
2023/07/19 04:50:53;;;;;;;4.78;2.08;;;18.00;71.40;;;;;;4968725;28;20109;-76
2023/07/19 04:53:21;;;;;;;7.05;2.33;;;18.00;70.90;;;;;;4971647;28;20071;-77
2023/07/19 04:55:46;;;;;;;8.07;2.40;;;18.20;71.00;;;;;;4958904;29;20029;-77
2023/07/19 04:58:13;;;;;;;7.40;2.30;;;18.20;71.70;;;;;;4958589;29;20114;-78
2023/07/19 05:00:38;;;;;;;5.28;2.10;;;18.20;71.70;;;;;;4961611;28;20110;-77
2023/07/19 05:03:04;;;;;;;7.00;2.33;;;18.20;71.40;;;;;;4963270;28;20074;-77
2023/07/19 05:05:30;;;;;;;5.40;2.10;;;18.20;71.60;;;;;;4970641;28;20032;-76
2023/07/19 05:07:55;;;;;;;4.78;2.13;;;18.20;72.10;;;;;;4956243;28;20035;-76
2023/07/19 05:10:21;;;;;;;5.28;1.83;;;18.20;72.10;;;;;;4977912;28;20083;-77
2023/07/19 05:12:47;;;;;;;7.25;2.00;;;18.20;72.20;;;;;;4960738;28;20027;-77
2023/07/19 05:15:12;;;;;;;3.65;1.95;;;18.20;72.20;;;;;;4963296;28;20023;-78
2023/07/19 05:17:38;;;;;;;13.15;2.20;;;18.20;72.50;;;;;;4958285;29;20107;-76
2023/07/19 05:20:05;;;;;;;4.25;1.70;;;18.20;72.20;;;;;;4969575;28;20474;-78
2023/07/19 05:22:31;;;;;;;8.00;2.45;;;18.20;72.30;;;;;;4960751;28;20042;-78
2023/07/19 05:24:57;;;;;;;5.25;2.25;;;18.30;72.30;;;;;;4977709;28;20031;-77
2023/07/19 05:27:23;;;;;;;5.18;2.20;;;18.30;72.20;;;;;;4968578;28;20035;-77
2023/07/19 05:29:49;;;;;;;7.72;2.58;;;18.30;72.40;;;;;;4956319;29;20023;-75
2023/07/19 05:32:15;;;;;;;5.65;2.60;;;18.30;72.90;;;;;;4955791;29;20537;-76
2023/07/19 05:34:41;;;;;;;6.45;2.58;;;18.30;72.60;;;;;;4959920;28;20027;-76
2023/07/19 05:37:07;;;;;;;6.03;2.20;;;18.30;72.20;;;;;;4967053;28;20031;-76
2023/07/19 05:39:34;;;;;;;6.45;2.35;;;18.30;72.70;;;;;;4964575;28;20054;-76
2023/07/19 05:42:00;;;;;;;5.40;2.45;;;18.30;72.30;;;;;;4951195;28;20034;-76
2023/07/19 05:44:26;;;;;;;5.38;2.30;;;18.40;72.20;;;;;;4961949;28;20478;-76
2023/07/19 05:46:52;;;;;;;6.03;2.55;;;18.60;71.60;;;;;;4958060;29;20058;-75
2023/07/19 05:49:19;;;;;;;5.03;2.50;;;18.80;71.10;;;;;;4957599;29;20028;-76
2023/07/19 05:51:44;;;;;;;5.68;2.53;;;18.80;70.40;;;;;;4943317;28;20027;-76
2023/07/19 05:54:10;;;;;;;5.05;2.05;;;18.90;70.50;;;;;;4961598;29;20102;-76
2023/07/19 05:56:36;;;;;;;7.63;2.10;;;18.90;70.70;;;;;;4962297;28;20035;-76
2023/07/19 05:59:04;;;;;;;6.90;2.50;;;19.00;70.10;;;;;;4960887;29;20024;-76
2023/07/19 06:01:30;;;;;;;5.78;2.42;;;19.00;70.30;;;;;;4961261;29;20106;-76
2023/07/19 06:03:55;;;;;;;7.15;2.35;;;19.00;69.90;;;;;;4970629;28;20489;-75
2023/07/19 06:06:21;;;;;;;9.32;2.72;;;19.10;69.80;;;;;;4972747;28;20027;-75
2023/07/19 06:08:47;;;;;;;6.72;2.38;;;19.10;70.10;;;;;;4947225;28;20066;-76
2023/07/19 06:11:12;;;;;;;8.10;2.38;;;19.10;69.90;;;;;;4970601;28;20031;-76
2023/07/19 06:13:38;;;;;;;5.18;2.25;;;19.10;70.10;;;;;;4961317;28;21025;-75
2023/07/19 06:16:04;;;;;;;4.70;2.00;;;19.20;69.70;;;;;;4972317;28;20118;-76
2023/07/19 06:18:30;;;;;;;5.82;2.55;;;19.20;70.30;;;;;;4961319;28;20027;-76
2023/07/19 06:20:55;;;;;;;7.20;2.80;;;19.20;70.30;;;;;;4953606;28;20101;-75
2023/07/19 06:23:21;;;;;;;10.73;2.60;;;19.20;70.10;;;;;;4972164;28;20626;-76
2023/07/19 06:25:48;;;;;;;6.40;2.35;;;19.30;69.90;;;;;;4971067;28;20023;-76
2023/07/19 06:28:14;;;;;;;6.57;2.00;;;19.40;69.50;;;;;;4956839;28;20031;-76
2023/07/19 06:30:41;;;;;;;6.28;2.97;;;19.50;69.40;;;;;;4968527;28;20039;-76
2023/07/19 06:33:07;;;;;;;6.13;2.83;;;19.60;69.00;;;;;;4959088;28;20405;-77
2023/07/19 06:35:35;;;;;;;5.75;2.30;;;19.70;68.70;;;;;;4973254;28;20102;-76
2023/07/19 06:38:05;;;;;;;8.02;2.53;;;19.80;68.20;;;;;;4969289;28;20211;-76
2023/07/19 06:40:30;;;;;;;5.30;2.53;;;19.80;68.20;;;;;;4946158;29;20103;-77
2023/07/19 06:42:56;;;;;;;5.40;2.40;;;19.80;68.30;;;;;;4968974;28;20030;-76
2023/07/19 06:45:22;;;;;;;4.97;2.42;;;19.90;68.20;;;;;;4956902;28;20478;-76
2023/07/19 06:47:47;;;;;;;5.78;2.17;;;19.90;68.20;;;;;;4952148;28;20031;-76
2023/07/19 06:50:13;;;;;;;6.18;2.30;;;20.00;67.90;;;;;;4958125;28;20118;-75
2023/07/19 06:52:39;;;;;;;8.40;2.30;;;20.10;67.70;;;;;;4963288;28;20114;-76
2023/07/19 06:55:05;;;;;;;9.18;3.10;;;20.20;67.90;;;;;;4960259;29;20117;-76
2023/07/19 06:57:31;;;;;;;5.20;2.28;;;20.30;67.60;;;;;;4961272;28;20019;-76
2023/07/19 06:59:57;;;;;;;7.18;2.10;;;20.30;67.40;;;;;;4955891;29;20050;-76
2023/07/19 07:02:23;;;;;;;8.02;2.30;;;20.30;67.00;;;;;;4960196;28;20049;-76
2023/07/19 07:04:50;;;;;;;5.05;2.40;;;20.40;67.00;;;;;;4953528;28;20026;-76
2023/07/19 07:07:19;;;;;;;5.68;2.50;;;20.50;66.80;;;;;;4972449;28;20015;-76
2023/07/19 07:09:45;;;;;;;6.35;2.13;;;20.40;66.60;;;;;;4968405;28;20518;-75
2023/07/19 07:12:11;;;;;;;10.13;2.78;;;20.60;66.50;;;;;;4972041;28;20437;-76
2023/07/19 07:14:37;;;;;;;7.55;3.08;;;20.60;66.50;;;;;;4953011;28;20027;-76
2023/07/19 07:17:03;;;;;;;5.93;2.47;;;20.80;66.30;;;;;;4970086;28;20106;-76
2023/07/19 07:19:29;;;;;;;8.15;3.15;;;20.80;65.80;;;;;;4946867;28;20054;-76
2023/07/19 07:21:54;;;;;;;4.57;2.45;;;20.70;65.90;;;;;;4960086;28;20051;-76
2023/07/19 07:24:20;;;;;;;6.07;2.28;;;20.80;65.80;;;;;;4960189;29;20035;-75
2023/07/19 07:26:46;;;;;;;6.22;2.40;;;20.90;65.20;;;;;;4960747;28;20031;-76
2023/07/19 07:29:11;;;;;;;6.85;2.20;;;20.90;65.30;;;;;;4960140;29;20101;-76
2023/07/19 07:31:37;;;;;;;5.93;2.10;;;20.90;65.20;;;;;;4959855;29;20043;-76
2023/07/19 07:34:02;;;;;;;5.43;2.30;;;20.90;64.70;;;;;;4950784;28;20046;-76
2023/07/19 07:36:28;;;;;;;7.40;1.85;;;20.90;65.00;;;;;;4979038;28;20027;-76
2023/07/19 07:38:54;;;;;;;8.65;2.47;;;20.80;64.70;;;;;;4961947;28;20031;-75
2023/07/19 07:41:19;;;;;;;6.47;2.55;;;20.80;64.70;;;;;;4958301;29;20118;-76
2023/07/19 07:43:45;;;;;;;6.75;2.30;;;20.90;64.70;;;;;;4959788;29;20027;-76
2023/07/19 07:46:11;;;;;;;5.22;2.22;;;21.10;64.20;;;;;;4959869;28;20039;-76
2023/07/19 07:48:36;;;;;;;4.75;2.28;;;21.30;64.30;;;;;;4962484;28;20090;-76
2023/07/19 07:51:03;;;;;;;5.28;1.83;;;21.50;63.30;;;;;;4959359;29;20500;-76
2023/07/19 07:53:29;;;;;;;7.07;2.47;;;21.50;63.30;;;;;;4958843;28;20038;-76
2023/07/19 07:55:54;;;;;;;5.07;1.55;;;21.50;63.30;;;;;;4947627;29;20039;-76
2023/07/19 07:58:20;;;;;;;5.13;3.15;;;21.60;63.00;;;;;;4959742;29;20031;-75
2023/07/19 08:00:46;;;;;;;6.15;2.45;;;21.60;62.80;;;;;;4959692;28;20023;-76
2023/07/19 08:03:12;;;;;;;6.78;2.40;;;21.30;63.10;;;;;;4944364;28;20133;-76
2023/07/19 08:05:39;;;;;;;7.30;2.42;;;21.20;63.80;;;;;;4978967;28;20061;-76
2023/07/19 08:08:06;;;;;;;5.15;1.77;;;21.10;64.20;;;;;;4969795;28;20031;-75
2023/07/19 08:10:40;;;;;;;5.85;2.00;;;21.00;64.20;;;;;;4964032;28;20136;-76
2023/07/19 08:13:07;;;;;;;6.13;2.15;;;21.00;64.20;;;;;;4978411;28;20401;-76
2023/07/19 08:15:33;;;;;;;7.28;2.28;;;21.30;63.90;;;;;;4960775;28;20034;-76
2023/07/19 08:17:59;;;;;;;5.07;2.15;;;21.70;63.40;;;;;;4975557;28;20035;-76
2023/07/19 08:20:25;;;;;;;6.53;2.42;;;21.80;62.30;;;;;;4957262;29;20066;-76
2023/07/19 08:22:51;;;;;;;7.70;1.95;;;21.90;61.50;;;;;;4959031;29;20884;-76
2023/07/19 08:25:19;;;;;;;6.00;2.22;;;21.80;61.00;;;;;;4959103;29;20055;-76
2023/07/19 08:27:44;;;;;;;6.15;1.70;;;21.90;60.90;;;;;;4958809;29;20032;-76
2023/07/19 08:30:15;;;;;;;6.00;1.83;;;22.10;59.60;;;;;;4960043;28;20397;-76
2023/07/19 08:32:46;;;;;;;6.63;2.20;;;22.20;59.70;;;;;;4960862;28;20371;-76
2023/07/19 08:35:14;;;;;;;4.78;1.70;;;22.20;59.50;;;;;;4956785;29;20023;-73
2023/07/19 08:37:43;;;;;;;5.30;1.65;;;22.00;59.50;;;;;;4958944;29;20035;-74
2023/07/19 08:40:14;;;;;;;5.65;1.67;;;21.80;59.90;;;;;;4960225;28;20057;-76
2023/07/19 08:42:40;;;;;;;6.15;1.83;;;21.80;58.60;;;;;;4961039;28;20023;-74
2023/07/19 08:45:07;;;;;;;4.07;1.45;;;21.90;58.40;;;;;;4959769;28;20027;-73
2023/07/19 08:47:35;;;;;;;6.00;1.73;;;22.10;56.90;;;;;;4940862;29;20043;-73
2023/07/19 08:50:04;;;;;;;4.18;1.30;;;22.30;57.00;;;;;;4958979;28;20030;-73
2023/07/19 08:52:32;;;;;;;3.97;1.85;;;22.40;55.90;;;;;;4958814;29;20027;-76
2023/07/19 08:54:58;;;;;;;3.65;1.33;;;22.50;55.20;;;;;;4958472;29;20055;-73
2023/07/19 08:57:23;;;;;;;3.17;1.63;;;22.60;55.10;;;;;;4959331;28;20117;-77
2023/07/19 08:59:49;;;;;;;4.95;1.73;;;22.70;54.60;;;;;;4958301;29;20054;-74
2023/07/19 09:02:15;;;;;;;5.28;1.77;;;22.80;54.20;;;;;;4958713;29;20039;-74
2023/07/19 09:04:40;;;;;;;5.15;1.50;;;23.30;53.40;;;;;;4973962;28;20038;-74
2023/07/19 09:07:06;;;;;;;3.10;1.25;;;23.60;52.20;;;;;;4967905;28;20054;-74
2023/07/19 09:09:32;;;;;;;3.75;2.08;;;23.70;52.40;;;;;;4958712;29;20023;-74
2023/07/19 09:11:58;;;;;;;3.40;1.50;;;23.60;52.60;;;;;;4956310;28;20544;-74
2023/07/19 09:14:49;;;;;;;4.82;1.40;;;23.40;52.60;;;;;;4958751;29;20019;-74
2023/07/19 09:17:15;;;;;;;2.78;1.35;;;23.30;52.60;;;;;;4954596;28;20039;-74
2023/07/19 09:19:44;;;;;;;3.78;1.30;;;23.30;52.80;;;;;;4958518;29;20031;-74
2023/07/19 09:22:10;;;;;;;4.00;1.30;;;23.10;53.10;;;;;;4941065;29;20042;-74
2023/07/19 09:24:35;;;;;;;6.05;1.45;;;23.00;53.60;;;;;;4958058;29;20035;-74
2023/07/19 09:27:01;;;;;;;2.75;0.98;;;22.80;53.60;;;;;;4961078;28;20098;-73
2023/07/19 09:29:31;;;;;;;4.07;1.40;;;22.80;54.30;;;;;;4958479;29;20023;-74
2023/07/19 09:32:01;;;;;;;4.43;1.30;;;22.80;55.00;;;;;;4960699;29;20079;-74
2023/07/19 09:34:37;;;;;;;4.70;1.55;;;23.00;54.40;;;;;;4956835;28;20015;-74
2023/07/19 09:37:04;;;;;;;3.17;1.30;;;22.90;53.70;;;;;;4972176;28;20042;-73
2023/07/19 09:39:34;;;;;;;4.60;1.40;;;23.00;54.30;;;;;;4949999;28;20539;-74
2023/07/19 09:42:01;;;;;;;3.33;1.20;;;23.00;54.70;;;;;;4944595;29;20055;-75
2023/07/19 09:44:27;;;;;;;4.78;2.03;;;23.10;55.00;;;;;;4962073;29;20587;-75
2023/07/19 09:47:01;;;;;;;3.88;1.10;;;23.00;54.80;;;;;;4961917;29;20433;-74
2023/07/19 09:49:26;;;;;;;3.97;1.40;;;23.00;55.10;;;;;;4944720;29;20136;-74
2023/07/19 09:51:55;;;;;;;3.20;1.10;;;22.80;54.90;;;;;;4944698;29;20033;-74
2023/07/19 09:54:23;;;;;;;2.47;1.20;;;22.80;55.20;;;;;;4945052;29;20034;-74
2023/07/19 09:56:50;;;;;;;5.15;1.23;;;22.80;55.60;;;;;;4944245;28;20027;-74
2023/07/19 09:59:25;;;;;;;2.95;1.30;;;22.70;55.70;;;;;;4959983;29;20019;-74
2023/07/19 10:01:51;;;;;;;4.07;1.58;;;22.80;55.70;;;;;;4944013;29;20024;-74
2023/07/19 10:04:27;;;;;;;3.17;1.20;;;23.00;55.90;;;;;;4974110;28;20019;-74
2023/07/19 10:06:59;;;;;;;5.13;1.58;;;23.00;55.30;;;;;;4978007;28;20026;-74
2023/07/19 10:09:25;;;;;;;3.20;1.23;;;23.20;55.20;;;;;;4961689;29;20051;-74
2023/07/19 10:11:50;;;;;;;4.00;1.40;;;23.20;54.10;;;;;;4976429;28;20062;-74
2023/07/19 10:14:28;;;;;;;4.65;1.73;;;23.50;54.10;;;;;;4979428;28;20034;-75
2023/07/19 10:17:01;;;;;;;2.67;1.30;;;23.60;53.40;;;;;;4957159;28;20027;-74
2023/07/19 10:19:27;;;;;;;3.25;1.40;;;23.90;52.90;;;;;;4958653;28;20019;-75
2023/07/19 10:22:05;;;;;;;2.95;1.40;;;24.20;53.00;;;;;;4976706;28;20436;-74
2023/07/19 10:24:36;;;;;;;3.95;1.60;;;24.60;53.60;;;;;;4960670;28;20023;-74
2023/07/19 10:27:10;;;;;;;3.28;1.60;;;24.90;52.40;;;;;;4976510;28;20437;-74
2023/07/19 10:29:44;;;;;;;4.10;1.50;;;25.10;51.50;;;;;;4970228;28;20094;-74
2023/07/19 10:32:10;;;;;;;4.38;1.52;;;25.20;50.90;;;;;;4962310;28;20077;-74
2023/07/19 10:34:37;;;;;;;5.03;1.63;;;25.20;50.70;;;;;;4970138;28;20023;-74
2023/07/19 10:37:06;;;;;;;5.32;1.80;;;26.00;48.80;;;;;;4954560;28;20027;-75
2023/07/19 10:39:32;;;;;;;4.47;1.50;;;25.90;48.70;;;;;;4976203;28;20106;-74
2023/07/19 10:41:59;;;;;;;4.35;1.88;;;25.80;48.60;;;;;;4960440;28;20046;-74
2023/07/19 10:44:26;;;;;;;3.83;1.52;;;25.70;48.80;;;;;;4971330;28;20046;-74
2023/07/19 10:46:56;;;;;;;4.13;1.60;;;25.60;49.90;;;;;;4969147;28;20480;-74
2023/07/19 10:49:23;;;;;;;3.40;1.60;;;25.20;50.70;;;;;;4971175;28;20016;-74
2023/07/19 10:51:57;;;;;;;5.07;1.83;;;24.70;51.20;;;;;;4970400;28;20046;-74
2023/07/19 10:54:24;;;;;;;5.10;1.80;;;24.30;53.00;;;;;;4976522;28;20023;-74
2023/07/19 10:56:53;;;;;;;3.60;1.30;;;24.30;54.30;;;;;;4973446;28;20030;-74
2023/07/19 10:59:20;;;;;;;4.60;1.60;;;24.30;54.40;;;;;;4968554;28;20019;-74
2023/07/19 11:01:48;;;;;;;3.72;1.52;;;24.40;55.10;;;;;;4969938;28;20966;-74
2023/07/19 11:04:15;;;;;;;4.43;1.60;;;24.50;54.80;;;;;;4972336;28;20015;-74
2023/07/19 11:06:59;;;;;;;4.80;2.35;;;24.60;55.00;;;;;;4959209;28;20065;-74
2023/07/19 11:09:25;;;;;;;4.30;1.70;;;24.60;55.30;;;;;;4952078;28;20043;-74
2023/07/19 11:11:52;;;;;;;5.13;1.52;;;24.70;55.50;;;;;;4966375;28;20031;-73
2023/07/19 11:14:32;;;;;;;5.13;1.77;;;24.80;55.10;;;;;;4970748;28;20386;-74
2023/07/19 11:16:58;;;;;;;3.13;1.23;;;24.70;55.10;;;;;;4975246;28;20620;-74
2023/07/19 11:19:35;;;;;;;3.50;1.30;;;24.90;54.60;;;;;;4971236;28;20053;-76
2023/07/19 11:22:01;;;;;;;3.67;1.25;;;25.20;54.60;;;;;;4947391;29;20082;-75
2023/07/19 11:24:41;;;;;;;3.30;1.13;;;25.20;54.10;;;;;;4960268;28;20035;-76
2023/07/19 11:27:08;;;;;;;2.42;1.10;;;25.00;55.90;;;;;;4959489;29;20027;-74
2023/07/19 11:29:34;;;;;;;8.93;2.72;;;24.70;55.30;;;;;;4943354;29;20031;-73
2023/07/19 11:32:33;;;;;;;10.85;4.80;;;24.60;56.00;;;;;;4944845;28;20039;-75
2023/07/19 11:35:00;;;;;;;2.90;1.42;;;24.80;55.70;;;;;;4912337;29;20039;-75
2023/07/19 11:37:38;;;;;;;4.80;1.60;;;25.00;55.10;;;;;;4972255;28;20453;-76
2023/07/19 11:40:05;;;;;;;2.22;1.10;;;25.20;55.60;;;;;;4967880;28;20106;-75
2023/07/19 11:42:52;;;;;;;3.33;1.15;;;25.40;54.70;;;;;;4946908;28;20019;-80
2023/07/19 11:45:24;;;;;;;1.85;0.85;;;25.60;54.70;;;;;;4960306;29;20498;-79
2023/07/19 11:47:56;;;;;;;1.92;0.80;;;25.50;53.60;;;;;;4978878;28;20042;-79
2023/07/19 11:50:23;;;;;;;1.63;0.80;;;25.50;53.60;;;;;;4955048;28;20605;-80
2023/07/19 11:52:54;;;;;;;2.03;0.85;;;25.40;52.70;;;;;;4972279;28;20027;-79
2023/07/19 11:55:20;;;;;;;1.77;0.60;;;25.60;53.20;;;;;;4957425;28;20026;-78
2023/07/19 11:57:49;;;;;;;3.30;0.88;;;25.50;52.40;;;;;;4978916;28;20029;-78
2023/07/19 12:00:20;;;;;;;1.70;0.60;;;25.70;53.70;;;;;;4956463;29;20331;-79
2023/07/19 12:02:47;;;;;;;1.80;0.60;;;25.70;53.10;;;;;;4970773;28;20508;-79
2023/07/19 12:05:17;;;;;;;1.80;0.90;;;25.70;52.10;;;;;;4976012;28;20023;-79
2023/07/19 12:07:43;;;;;;;1.67;0.75;;;25.70;51.70;;;;;;4963723;28;20039;-79
2023/07/19 12:10:12;;;;;;;2.13;0.88;;;25.70;52.40;;;;;;4969811;28;20051;-79
2023/07/19 12:12:39;;;;;;;1.67;0.70;;;25.70;50.80;;;;;;4978681;28;20034;-78
2023/07/19 12:15:19;;;;;;;;;;;;;;;;;;;;;
2023/07/19 12:17:47;;;;;;;2.65;0.95;;;25.60;52.90;;;;;;4977795;28;20117;-81
2023/07/19 12:20:12;;;;;;;2.67;0.90;;;25.40;52.80;;;;;;4975190;28;20375;-78
2023/07/19 12:22:41;;;;;;;1.52;0.70;;;25.10;52.80;;;;;;4967340;28;20027;-79
2023/07/19 12:25:07;;;;;;;1.92;0.73;;;25.20;52.70;;;;;;4978006;28;20110;-77
2023/07/19 12:27:33;;;;;;;1.63;0.82;;;25.20;51.30;;;;;;4961053;28;20114;-77
2023/07/19 12:29:59;;;;;;;2.10;0.77;;;25.10;51.70;;;;;;4967717;28;20058;-77
2023/07/19 12:32:25;;;;;;;4.28;0.90;;;25.10;52.20;;;;;;4968772;28;20066;-80
2023/07/19 12:34:51;;;;;;;2.92;1.17;;;25.20;52.70;;;;;;4962401;28;20032;-81
2023/07/19 12:37:17;;;;;;;2.80;0.90;;;25.20;52.40;;;;;;4970643;28;20643;-80
2023/07/19 12:39:42;;;;;;;2.05;0.90;;;25.20;52.60;;;;;;4953376;29;20434;-80
2023/07/19 12:42:09;;;;;;;2.88;1.02;;;25.20;52.40;;;;;;4970716;28;20038;-81
2023/07/19 12:44:36;;;;;;;3.15;0.98;;;25.00;51.70;;;;;;4975093;28;20031;-81
2023/07/19 12:47:03;;;;;;;2.92;0.90;;;24.80;52.40;;;;;;4957325;28;20034;-80
2023/07/19 12:49:28;;;;;;;1.98;1.20;;;24.70;52.70;;;;;;4965526;28;20034;-81
2023/07/19 12:51:54;;;;;;;2.42;1.10;;;24.70;53.40;;;;;;4969494;28;20027;-81
2023/07/19 12:54:20;;;;;;;2.08;0.95;;;24.80;53.20;;;;;;4955961;28;20087;-81
2023/07/19 12:56:45;;;;;;;3.17;0.93;;;25.20;53.40;;;;;;4960088;28;20106;-81
2023/07/19 12:59:11;;;;;;;3.63;1.23;;;25.60;51.90;;;;;;4957736;29;20027;-80
2023/07/19 13:01:37;;;;;;;4.40;1.20;;;25.60;51.80;;;;;;4975247;28;20113;-80
2023/07/19 13:04:04;;;;;;;3.00;1.40;;;25.50;52.20;;;;;;4976770;28;20033;-80
2023/07/19 13:06:30;;;;;;;3.80;1.08;;;25.60;52.30;;;;;;4960610;28;20433;-80
2023/07/19 13:08:56;;;;;;;3.58;1.10;;;25.70;50.70;;;;;;4951782;28;20117;-81
2023/07/19 13:11:23;;;;;;;3.38;1.40;;;25.70;50.30;;;;;;4977918;28;20023;-81
2023/07/19 13:13:49;;;;;;;3.83;1.20;;;25.80;50.40;;;;;;4973063;28;20027;-80
2023/07/19 13:16:14;;;;;;;2.70;1.00;;;25.90;51.00;;;;;;4972285;28;20069;-80
2023/07/19 13:18:40;;;;;;;3.63;1.92;;;25.90;49.30;;;;;;4963576;28;20039;-81
2023/07/19 13:21:06;;;;;;;4.15;1.33;;;25.80;49.70;;;;;;4971310;28;20031;-80
2023/07/19 13:23:32;;;;;;;2.75;1.38;;;25.60;49.30;;;;;;4971235;28;20024;-80
2023/07/19 13:25:58;;;;;;;3.20;1.10;;;25.50;50.30;;;;;;4976820;28;20062;-80
2023/07/19 13:28:24;;;;;;;3.08;1.20;;;25.60;49.70;;;;;;4972159;28;20027;-80
2023/07/19 13:30:49;;;;;;;2.90;1.30;;;25.80;50.80;;;;;;4969667;28;20039;-81
2023/07/19 13:33:15;;;;;;;3.17;1.50;;;26.00;49.30;;;;;;4967614;28;20574;-81
2023/07/19 13:35:42;;;;;;;3.60;1.40;;;26.20;48.70;;;;;;4972064;28;20034;-80
2023/07/19 13:38:08;;;;;;;3.33;1.30;;;26.40;49.30;;;;;;4969966;28;20552;-81
2023/07/19 13:40:34;;;;;;;2.85;1.25;;;26.80;47.60;;;;;;4967139;28;20039;-80
2023/07/19 13:43:02;;;;;;;3.45;1.30;;;26.80;47.00;;;;;;4953231;28;20026;-81
2023/07/19 13:45:28;;;;;;;9.57;1.42;;;26.70;46.80;;;;;;4955280;28;20031;-80
2023/07/19 13:47:54;;;;;;;4.53;1.40;;;26.80;46.40;;;;;;4953538;28;20034;-80
2023/07/19 13:50:19;;;;;;;3.50;1.23;;;26.60;47.80;;;;;;4951561;28;20494;-81
2023/07/19 13:52:54;;;;;;;3.80;1.20;;;26.40;46.70;;;;;;4968758;28;20031;-81
2023/07/19 13:55:24;;;;;;;2.63;1.10;;;26.50;46.10;;;;;;4964547;28;20027;-80
2023/07/19 13:57:54;;;;;;;3.30;1.30;;;26.70;46.20;;;;;;4953259;28;20026;-81
2023/07/19 14:00:21;;;;;;;2.67;1.13;;;26.80;45.70;;;;;;4942824;29;20038;-82
2023/07/19 14:02:47;;;;;;;2.75;1.20;;;26.70;46.10;;;;;;4957952;28;20031;-81
2023/07/19 14:05:13;;;;;;;3.00;1.23;;;26.30;45.40;;;;;;4958517;28;20593;-80
2023/07/19 14:07:39;;;;;;;3.35;1.33;;;26.30;45.70;;;;;;4963821;28;20032;-80
2023/07/19 14:10:08;;;;;;;3.25;1.48;;;26.00;46.30;;;;;;4957740;28;20039;-80
2023/07/19 14:12:36;;;;;;;4.63;1.58;;;26.30;46.20;;;;;;4956524;28;20027;-81
2023/07/19 14:15:02;;;;;;;3.85;1.65;;;26.60;45.30;;;;;;4961402;29;20030;-81
2023/07/19 14:17:29;;;;;;;2.75;1.30;;;26.80;43.50;;;;;;4963990;28;20027;-81
2023/07/19 14:19:54;;;;;;;5.88;1.50;;;26.80;45.20;;;;;;4948348;28;20109;-81
2023/07/19 14:22:20;;;;;;;5.45;1.63;;;26.80;45.20;;;;;;4977284;28;20059;-80
2023/07/19 14:24:46;;;;;;;2.85;1.30;;;26.50;45.30;;;;;;4963547;28;20037;-81
2023/07/19 14:27:12;;;;;;;3.75;1.42;;;26.40;45.70;;;;;;4968821;28;20042;-81
2023/07/19 14:29:40;;;;;;;3.72;1.40;;;26.40;45.00;;;;;;4960526;29;20029;-81
2023/07/19 14:32:06;;;;;;;3.60;1.30;;;26.70;44.90;;;;;;4969266;28;20397;-81
2023/07/19 14:34:31;;;;;;;3.83;1.35;;;26.80;44.90;;;;;;4971996;28;20042;-76
2023/07/19 14:36:57;;;;;;;3.00;1.30;;;26.80;43.30;;;;;;4975467;28;20082;-75
2023/07/19 14:39:24;;;;;;;3.58;1.60;;;26.70;43.70;;;;;;4961958;29;20045;-76
2023/07/19 14:41:53;;;;;;;2.55;1.40;;;26.50;44.00;;;;;;4961622;28;20038;-75
2023/07/19 14:44:23;;;;;;;4.25;1.58;;;26.30;44.60;;;;;;4977356;28;20023;-75
2023/07/19 14:46:49;;;;;;;3.45;1.20;;;26.20;44.70;;;;;;4979718;28;20570;-77
2023/07/19 14:49:15;;;;;;;3.03;1.25;;;26.20;44.20;;;;;;4980110;28;20031;-87
2023/07/19 14:51:41;;;;;;;3.40;1.35;;;26.30;44.30;;;;;;4959930;28;20023;-86
2023/07/19 14:54:08;;;;;;;3.28;1.20;;;26.30;44.60;;;;;;4956748;28;20030;-87
2023/07/19 14:56:33;;;;;;;2.67;1.40;;;26.30;44.20;;;;;;4976145;28;20414;-86
2023/07/19 14:59:00;;;;;;;3.35;1.42;;;26.30;44.20;;;;;;4951688;28;20073;-87
2023/07/19 15:01:26;;;;;;;3.70;1.20;;;26.40;43.80;;;;;;4960811;28;20022;-87
2023/07/19 15:03:51;;;;;;;4.40;1.40;;;26.60;44.10;;;;;;4955128;28;20026;-87
2023/07/19 15:06:20;;;;;;;2.92;1.23;;;26.70;43.40;;;;;;4970018;28;20101;-86
2023/07/19 15:08:46;;;;;;;3.75;1.40;;;26.80;42.20;;;;;;4952616;28;20031;-88
2023/07/19 15:11:13;;;;;;;3.47;1.35;;;26.80;42.60;;;;;;4951943;28;20482;-88
2023/07/19 15:13:39;;;;;;;2.50;1.17;;;26.70;42.60;;;;;;4951560;28;20074;-87
2023/07/19 15:16:05;;;;;;;3.67;1.30;;;26.50;42.10;;;;;;4959859;28;20030;-87
2023/07/19 15:18:32;;;;;;;4.25;1.50;;;26.60;42.80;;;;;;4969759;28;20024;-88
2023/07/19 15:20:58;;;;;;;3.70;1.50;;;26.70;42.60;;;;;;4955677;28;20488;-87
2023/07/19 15:23:24;;;;;;;2.95;1.30;;;26.60;42.60;;;;;;4949002;28;20024;-87
2023/07/19 15:25:50;;;;;;;2.88;1.10;;;26.60;42.70;;;;;;4970139;28;20090;-87
2023/07/19 15:28:15;;;;;;;2.78;1.20;;;26.60;43.20;;;;;;4971004;28;20052;-86
2023/07/19 15:30:41;;;;;;;5.10;1.35;;;26.30;42.90;;;;;;4969640;28;20042;-86
2023/07/19 15:33:07;;;;;;;2.40;1.10;;;26.20;43.50;;;;;;4968274;28;20031;-86
2023/07/19 15:35:32;;;;;;;4.97;1.40;;;26.20;43.20;;;;;;4956967;29;20059;-87
2023/07/19 15:37:58;;;;;;;2.83;1.40;;;26.20;43.30;;;;;;4957971;28;20027;-87
2023/07/19 15:40:24;;;;;;;3.70;1.20;;;26.30;43.20;;;;;;4975127;28;20078;-87
2023/07/19 15:42:49;;;;;;;2.95;1.23;;;26.10;42.60;;;;;;4973509;28;20042;-88
2023/07/19 15:45:15;;;;;;;3.40;1.30;;;26.00;42.50;;;;;;4946306;28;20090;-89
2023/07/19 15:47:40;;;;;;;3.55;1.40;;;26.10;42.70;;;;;;4955216;28;20521;-87
2023/07/19 15:50:06;;;;;;;3.72;1.30;;;26.10;43.10;;;;;;4959708;28;20074;-87
2023/07/19 15:52:32;;;;;;;4.75;1.60;;;26.10;43.40;;;;;;4952205;28;20026;-88
2023/07/19 15:54:58;;;;;;;5.78;1.70;;;25.80;43.10;;;;;;4958956;28;20078;-88
2023/07/19 15:57:23;;;;;;;2.92;1.20;;;25.80;43.40;;;;;;4958269;29;20032;-80
2023/07/19 15:59:49;;;;;;;4.97;1.42;;;25.90;43.90;;;;;;4960124;28;20036;-87
2023/07/19 16:02:16;;;;;;;2.67;1.10;;;26.10;42.80;;;;;;4963534;28;20035;-90
2023/07/19 16:04:42;;;;;;;3.10;1.30;;;26.20;42.80;;;;;;4977897;28;20115;-88
2023/07/19 16:07:07;;;;;;;4.03;1.35;;;26.20;41.70;;;;;;4961859;28;20058;-85
2023/07/19 16:09:33;;;;;;;3.50;1.23;;;26.20;41.40;;;;;;4976071;28;20030;-88
2023/07/19 16:11:59;;;;;;;2.58;1.08;;;26.30;42.00;;;;;;4969033;28;20031;-80
2023/07/19 16:14:25;;;;;;;5.07;1.35;;;26.20;41.20;;;;;;4969923;28;20596;-86
2023/07/19 16:16:50;;;;;;;3.95;1.30;;;26.20;41.30;;;;;;4944501;28;20027;-87
2023/07/19 16:19:17;;;;;;;3.60;1.10;;;26.30;40.60;;;;;;4954200;28;20484;-88
2023/07/19 16:21:44;;;;;;;4.15;1.30;;;26.10;40.80;;;;;;4953279;28;20069;-89
2023/07/19 16:24:10;;;;;;;2.22;1.10;;;26.00;41.70;;;;;;4948207;28;20027;-88
2023/07/19 16:26:36;;;;;;;3.10;1.30;;;25.80;40.90;;;;;;4938794;28;20050;-89
2023/07/19 16:29:02;;;;;;;4.10;1.50;;;25.80;42.10;;;;;;4953658;28;20501;-88
2023/07/19 16:31:27;;;;;;;2.65;1.33;;;25.90;42.30;;;;;;4965693;28;20078;-89
2023/07/19 16:33:53;;;;;;;4.57;1.23;;;26.00;42.00;;;;;;4955882;29;20111;-88
2023/07/19 16:36:19;;;;;;;4.38;1.40;;;26.00;42.00;;;;;;4945587;28;20029;-88
2023/07/19 16:38:44;;;;;;;2.47;1.17;;;25.90;42.30;;;;;;4971500;28;20035;-88
2023/07/19 16:41:10;;;;;;;3.13;1.33;;;25.90;42.20;;;;;;4965067;28;20089;-88
2023/07/19 16:43:36;;;;;;;4.85;1.60;;;25.90;41.00;;;;;;4956103;28;20488;-87
2023/07/19 16:46:03;;;;;;;3.70;1.40;;;26.00;42.00;;;;;;4953289;28;20101;-86
2023/07/19 16:48:31;;;;;;;4.85;1.20;;;26.00;42.10;;;;;;4946467;23;20122;-86
2023/07/19 16:50:57;;;;;;;3.95;1.30;;;25.80;42.50;;;;;;4948711;28;20049;-86
2023/07/19 16:53:22;;;;;;;3.58;1.40;;;25.60;42.20;;;;;;4939433;23;20107;-85
2023/07/19 16:55:49;;;;;;;3.00;1.20;;;25.40;42.90;;;;;;4984653;28;20042;-84
2023/07/19 16:58:15;;;;;;;3.15;1.45;;;25.30;43.30;;;;;;4964735;28;20045;-84
2023/07/19 17:00:43;;;;;;;2.97;1.30;;;25.50;43.10;;;;;;4970065;28;20027;-83
2023/07/19 17:03:09;;;;;;;4.15;1.08;;;25.60;42.60;;;;;;4979507;28;20058;-85
2023/07/19 17:05:36;;;;;;;4.28;1.38;;;25.60;43.30;;;;;;4975043;28;20469;-84
2023/07/19 17:08:03;;;;;;;4.03;1.40;;;25.70;42.50;;;;;;4964338;28;20026;-86
2023/07/19 17:10:31;;;;;;;3.47;1.30;;;25.80;42.90;;;;;;4986351;28;20037;-84
2023/07/19 17:13:01;;;;;;;4.57;1.38;;;25.70;42.90;;;;;;4966471;28;20026;-89
2023/07/19 17:15:27;;;;;;;3.83;1.02;;;25.60;42.80;;;;;;4979063;28;20412;-85
2023/07/19 17:17:54;;;;;;;3.90;1.10;;;25.60;43.30;;;;;;4974275;28;20105;-85